Time;durP1;ratioP1;P1;durP2;ratioP2;P2;SDS_P1;SDS_P2;PMS_P1;PMS_P2;Temp;Humidity;BMP_temperature;BMP_pressure;BME280_temperature;BME280_humidity;BME280_pressure;Samples;Min_cycle;Max_cycle;Signal;HPM_P1;HPM_P2
2023/08/07 00:03:59;;;;;;;0.80;0.80;;;;;;;13.42;100.00;97965.02;434045;1257;139533;-70
2023/08/07 00:14:05;;;;;;;1.70;1.00;;;;;;;13.39;100.00;97953.92;433872;1259;138940;-70
2023/08/07 00:24:11;;;;;;;1.70;1.30;;;;;;;13.35;100.00;97946.91;434156;1259;139932;-71
2023/08/07 00:34:17;;;;;;;1.50;1.20;;;;;;;13.34;100.00;97945.50;433918;1257;139955;-70
2023/08/07 00:44:23;;;;;;;2.40;0.90;;;;;;;13.27;100.00;97941.25;433990;1259;139470;-71
2023/08/07 00:54:29;;;;;;;1.70;1.50;;;;;;;13.29;100.00;97949.16;434257;1257;140987;-70
2023/08/07 01:04:35;;;;;;;2.30;1.20;;;;;;;13.26;100.00;97945.95;435513;1257;138884;-70
2023/08/07 01:14:50;;;;;;;1.60;1.40;;;;;;;13.15;100.00;97947.88;433949;1257;140257;-70
2023/08/07 01:24:56;;;;;;;1.40;1.30;;;;;;;13.17;100.00;97941.65;434505;1256;139383;-69
2023/08/07 01:35:06;;;;;;;1.20;1.10;;;;;;;13.18;100.00;97939.02;434167;1257;140026;-69
2023/08/07 01:45:12;;;;;;;2.30;1.60;;;;;;;13.13;100.00;97926.77;434198;1257;138797;-69
2023/08/07 01:55:20;;;;;;;2.50;1.00;;;;;;;13.09;100.00;97920.55;435332;1256;140474;-69
2023/08/07 02:05:25;;;;;;;2.10;1.90;;;;;;;13.08;100.00;97917.54;434837;1256;138474;-68
2023/08/07 02:15:31;;;;;;;1.90;1.80;;;;;;;13.07;100.00;97930.91;434013;1257;139174;-69
2023/08/07 02:25:38;;;;;;;2.00;1.70;;;;;;;13.08;100.00;97943.52;434116;1257;139902;-69
2023/08/07 02:35:43;;;;;;;8.00;2.00;;;;;;;13.08;100.00;97950.54;434060;1257;139267;-69
2023/08/07 02:45:49;;;;;;;2.00;1.40;;;;;;;13.08;100.00;97954.39;434296;1257;140544;-70
2023/08/07 02:55:55;;;;;;;2.30;1.80;;;;;;;13.10;100.00;97964.77;434083;1257;139010;-69
2023/08/07 03:06:00;;;;;;;1.80;1.70;;;;;;;13.12;100.00;97951.30;433960;1259;140652;-69
2023/08/07 03:16:08;;;;;;;2.10;1.90;;;;;;;13.10;100.00;97940.55;433830;1256;139653;-69
2023/08/07 03:26:14;;;;;;;2.60;2.10;;;;;;;13.09;100.00;97935.73;434210;1259;139137;-69
2023/08/07 03:36:24;;;;;;;2.50;2.30;;;;;;;13.08;100.00;97948.90;433998;1259;139109;-70
2023/08/07 03:46:30;;;;;;;1.90;1.80;;;;;;;13.08;100.00;97967.18;433961;1256;138875;-68
2023/08/07 03:56:37;;;;;;;2.60;2.00;;;;;;;13.11;100.00;98001.33;433858;1259;141024;-69
2023/08/07 04:06:44;;;;;;;1.90;1.80;;;;;;;13.19;100.00;98014.91;434372;1257;138554;-68
2023/08/07 04:16:50;;;;;;;3.60;2.00;;;;;;;13.25;100.00;98020.40;434142;1256;139784;-69
2023/08/07 04:26:56;;;;;;;3.00;2.40;;;;;;;13.30;100.00;98020.04;433938;1257;139949;-69
2023/08/07 04:37:03;;;;;;;7.00;3.20;;;;;;;13.34;100.00;98027.52;434116;1259;139160;-70
2023/08/07 04:47:09;;;;;;;3.00;2.40;;;;;;;13.44;100.00;98024.98;434385;1257;139213;-70
2023/08/07 04:57:14;;;;;;;4.20;2.30;;;;;;;13.81;100.00;98034.07;434283;1257;140437;-70
2023/08/07 05:07:20;;;;;;;3.10;2.40;;;;;;;14.05;100.00;98051.70;433902;1257;139030;-69
2023/08/07 05:17:26;;;;;;;3.20;2.10;;;;;;;14.40;100.00;98066.42;434164;1257;138741;-70
2023/08/07 05:27:32;;;;;;;2.60;2.20;;;;;;;14.88;100.00;98063.70;436184;1257;139407;-68
2023/08/07 05:37:38;;;;;;;3.80;2.70;;;;;;;15.63;100.00;98066.61;433836;1257;140460;-67
2023/08/07 05:47:44;;;;;;;12.10;1.80;;;;;;;19.48;100.00;98060.65;433958;1259;139913;-67
2023/08/07 05:57:50;;;;;;;3.40;1.40;;;;;;;20.05;99.38;98071.46;434012;1259;140539;-66
2023/08/07 06:07:56;;;;;;;2.40;1.30;;;;;;;21.12;95.82;98071.22;433989;1257;139125;-67
2023/08/07 06:18:02;;;;;;;1.90;1.10;;;;;;;22.85;92.48;98080.15;434241;1259;139192;-70
2023/08/07 06:28:08;;;;;;;4.90;1.20;;;;;;;28.64;83.99;98080.92;434228;1259;158029;-76
2023/08/07 06:38:14;;;;;;;3.50;1.50;;;;;;;31.33;76.34;98081.45;438125;1259;138851;-79
2023/08/07 06:48:20;;;;;;;1.50;1.40;;;;;;;34.61;67.58;98075.08;438497;1257;138258;-75
2023/08/07 06:58:26;;;;;;;1.80;0.70;;;;;;;36.09;61.68;98074.88;438658;1259;139319;-75
2023/08/07 07:08:32;;;;;;;2.50;1.10;;;;;;;36.34;52.06;98085.40;438022;1256;137924;-74
2023/08/07 07:18:38;;;;;;;0.80;0.80;;;;;;;36.32;41.82;98099.36;438035;1257;137874;-78
2023/08/07 07:28:43;;;;;;;2.00;0.70;;;;;;;36.39;40.05;98108.90;438140;1256;138613;-72
2023/08/07 07:38:49;;;;;;;1.70;0.70;;;;;;;39.17;37.48;98123.77;438080;1259;138140;-73
2023/08/07 07:48:55;;;;;;;2.40;0.80;;;;;;;41.61;34.01;98128.20;437937;1256;137666;-74
2023/08/07 07:59:01;;;;;;;0.70;0.70;;;;;;;40.61;32.24;98137.39;437805;1257;137985;-74
2023/08/07 08:09:09;;;;;;;0.70;0.60;;;;;;;42.05;30.58;98153.14;437920;1257;137681;-74
2023/08/07 08:19:16;;;;;;;0.70;0.60;;;;;;;41.54;28.58;98159.45;437978;1257;137756;-75
2023/08/07 08:29:22;;;;;;;0.80;0.80;;;;;;;34.91;30.25;98148.26;437641;1257;138888;-74
2023/08/07 08:39:27;;;;;;;1.80;0.70;;;;;;;31.66;32.77;98151.95;437557;1260;138147;-78
2023/08/07 08:49:37;;;;;;;3.60;0.50;;;;;;;29.59;34.67;98157.33;437604;1257;139260;-74
2023/08/07 08:59:43;;;;;;;0.60;0.60;;;;;;;28.41;35.89;98160.17;436670;1257;138367;-65
2023/08/07 09:09:50;;;;;;;2.80;1.30;;;;;;;27.78;36.26;98156.44;438021;1257;138372;-65
2023/08/07 09:19:54;;;;;;;;;;;;;;;27.41;36.78;98160.53;434685;1257;138203;-64
2023/08/07 09:30:00;;;;;;;2.30;1.00;;;;;;;26.90;37.24;98164.63;434089;1259;124958;-64
2023/08/07 09:40:11;;;;;;;2.10;0.80;;;;;;;26.32;38.08;98173.34;434488;1259;138811;-65
2023/08/07 09:50:19;;;;;;;1.80;1.10;;;;;;;25.88;38.58;98173.21;434610;1259;137935;-65
2023/08/07 10:00:25;;;;;;;4.30;1.20;;;;;;;25.74;38.97;98173.98;434266;1259;138912;-65
2023/08/07 10:10:32;;;;;;;2.30;1.00;;;;;;;25.40;39.24;98184.20;434139;1259;140027;-66
2023/08/07 10:20:42;;;;;;;2.60;1.00;;;;;;;24.91;39.87;98188.71;433936;1259;138972;-72
2023/08/07 10:30:49;;;;;;;0.80;0.80;;;;;;;24.52;40.34;98203.31;437759;1258;138186;-77
2023/08/07 10:41:09;;;;;;;1.60;1.10;;;;;;;24.05;41.38;98231.77;437662;1257;138055;-72
2023/08/07 10:51:19;;;;;;;1.60;1.10;;;;;;;23.69;41.97;98240.64;437829;1257;138175;-73
2023/08/07 11:01:41;;;;;;;2.40;0.80;;;;;;;23.49;42.10;98250.31;437977;1259;139204;-75
2023/08/07 11:11:48;;;;;;;2.30;1.00;;;;;;;22.99;42.07;98256.79;438094;1259;139728;-81
2023/08/07 11:21:54;;;;;;;;;;;;;;;22.74;43.23;98253.17;439758;1259;138467;-73
2023/08/07 11:32:00;;;;;;;1.80;1.00;;;;;;;22.79;43.42;98252.58;437711;1259;126389;-70
2023/08/07 11:42:08;;;;;;;2.50;0.70;;;;;;;22.94;43.21;98260.34;438189;1256;138715;-76
2023/08/07 11:52:16;;;;;;;2.70;1.20;;;;;;;22.98;43.27;98250.13;437662;1259;139361;-74
2023/08/07 12:02:26;;;;;;;3.20;1.10;;;;;;;22.64;43.81;98242.98;437758;1257;138271;-73
2023/08/07 12:12:36;;;;;;;1.20;1.10;;;;;;;22.68;43.70;98246.92;438235;1257;138439;-79
2023/08/07 12:22:43;;;;;;;2.00;1.10;;;;;;;22.39;43.86;98255.21;437814;1259;138928;-71
2023/08/07 12:32:49;;;;;;;2.40;1.50;;;;;;;21.95;44.94;98256.45;437589;1258;138395;-71
2023/08/07 12:42:55;;;;;;;1.70;1.40;;;;;;;21.91;44.92;98261.71;435606;1258;138476;-64
2023/08/07 12:53:01;;;;;;;3.10;1.30;;;;;;;22.35;44.89;98268.73;435529;1259;138992;-69
2023/08/07 13:03:06;;;;;;;3.20;1.90;;;;;;;22.94;43.62;98265.77;438084;1259;139823;-69
2023/08/07 13:13:12;;;;;;;2.30;1.50;;;;;;;22.65;43.36;98268.02;436772;1259;138150;-74
2023/08/07 13:23:18;;;;;;;2.70;1.40;;;;;;;22.85;42.66;98267.41;438001;1260;139483;-75
2023/08/07 13:33:24;;;;;;;2.60;1.60;;;;;;;22.53;42.50;98279.33;439082;1259;138331;-70
2023/08/07 13:43:32;;;;;;;1.40;1.20;;;;;;;22.36;43.32;98291.55;437867;1259;138644;-73
2023/08/07 13:53:38;;;;;;;3.00;1.40;;;;;;;22.32;43.72;98298.34;437490;1260;138823;-67
2023/08/07 14:03:44;;;;;;;2.50;1.50;;;;;;;22.36;43.46;98309.08;437752;1260;141163;-77
2023/08/07 14:13:50;;;;;;;1.20;0.70;;;;;;;22.43;43.63;98313.65;437905;1260;139375;-75
2023/08/07 14:23:56;;;;;;;3.10;1.80;;;;;;;23.05;42.80;98318.36;437950;1260;139209;-67
2023/08/07 14:34:01;;;;;;;2.10;0.80;;;;;;;23.25;41.60;98332.27;433932;1260;138886;-68
2023/08/07 14:44:07;;;;;;;4.00;1.10;;;;;;;22.89;40.44;98352.52;437589;1259;139363;-66
2023/08/07 14:54:13;;;;;;;3.50;1.00;;;;;;;22.42;40.65;98365.21;436759;1257;138727;-66
2023/08/07 15:04:19;;;;;;;4.80;1.40;;;;;;;22.37;40.99;98375.64;433786;1260;139093;-65
2023/08/07 15:14:25;;;;;;;2.00;1.10;;;;;;;21.55;41.21;98395.03;433153;1260;138506;-67
2023/08/07 15:24:32;;;;;;;2.70;1.50;;;;;;;20.89;42.01;98403.63;434994;1259;137853;-66
2023/08/07 15:34:37;;;;;;;1.50;1.20;;;;;;;20.45;43.15;98410.70;433862;1258;139509;-66
2023/08/07 15:44:43;;;;;;;3.90;1.20;;;;;;;20.00;44.55;98423.34;436665;1259;139091;-70
2023/08/07 15:54:49;;;;;;;4.20;1.20;;;;;;;19.57;47.45;98446.14;437682;1260;138016;-73
2023/08/07 16:04:55;;;;;;;0.90;0.80;;;;;;;18.87;50.88;98453.69;437529;1258;138298;-70
2023/08/07 16:15:01;;;;;;;1.30;1.10;;;;;;;18.15;53.77;98454.90;433733;1258;138965;-68
2023/08/07 16:25:09;;;;;;;1.10;1.00;;;;;;;17.92;56.44;98456.44;434835;1260;138497;-64
2023/08/07 16:35:16;;;;;;;1.60;1.00;;;;;;;17.56;58.46;98460.04;434445;1257;139401;-65
2023/08/07 16:45:23;;;;;;;2.40;1.50;;;;;;;17.29;60.41;98469.29;433581;1257;138923;-64
2023/08/07 16:55:29;;;;;;;2.50;1.60;;;;;;;17.10;62.10;98469.55;434111;1257;139155;-65
2023/08/07 17:05:35;;;;;;;1.50;1.40;;;;;;;17.00;63.33;98479.92;434159;1259;138257;-65
2023/08/07 17:15:41;;;;;;;1.80;1.70;;;;;;;17.16;63.58;98486.25;434607;1257;138593;-65
2023/08/07 17:25:46;;;;;;;1.90;1.20;;;;;;;17.56;63.61;98495.80;434656;1257;139139;-64
2023/08/07 17:35:52;;;;;;;3.90;1.60;;;;;;;17.67;62.50;98503.27;435816;1254;139236;-65
2023/08/07 17:45:58;;;;;;;3.10;2.10;;;;;;;17.00;63.27;98524.15;436091;1251;139008;-66
2023/08/07 17:56:04;;;;;;;3.10;1.30;;;;;;;16.27;64.07;98543.63;436053;1254;140932;-65
2023/08/07 18:06:10;;;;;;;2.60;1.20;;;;;;;15.67;64.61;98554.53;436493;1253;138516;-65
2023/08/07 18:16:16;;;;;;;2.10;1.50;;;;;;;15.25;65.56;98559.25;436250;1254;139135;-67
2023/08/07 18:26:22;;;;;;;2.10;1.00;;;;;;;15.00;66.31;98581.45;435830;1253;150116;-68
2023/08/07 18:36:28;;;;;;;2.80;1.40;;;;;;;14.79;67.02;98587.15;436240;1253;138746;-67
2023/08/07 18:46:34;;;;;;;1.50;1.20;;;;;;;14.75;67.81;98590.73;435933;1253;139643;-71
2023/08/07 18:56:40;;;;;;;8.90;2.30;;;;;;;14.61;68.67;98595.39;436006;1254;138661;-69
2023/08/07 19:06:46;;;;;;;4.40;1.60;;;;;;;14.49;69.68;98601.64;436239;1251;139013;-69
2023/08/07 19:16:52;;;;;;;7.10;3.40;;;;;;;14.49;71.52;98606.17;436491;1251;140254;-68
2023/08/07 19:26:58;;;;;;;3.80;1.70;;;;;;;14.55;73.34;98609.30;436127;1251;139496;-67
2023/08/07 19:37:05;;;;;;;1.90;1.30;;;;;;;14.58;74.92;98609.52;437548;1250;139435;-66
2023/08/07 19:47:11;;;;;;;3.00;1.20;;;;;;;14.58;76.11;98611.11;436113;1253;139723;-67
2023/08/07 19:57:34;;;;;;;3.60;1.70;;;;;;;14.58;77.13;98608.31;435879;1251;139295;-68
2023/08/07 20:07:40;;;;;;;1.70;1.40;;;;;;;14.57;78.05;98614.80;435702;1251;139694;-69
2023/08/07 20:17:49;;;;;;;2.60;2.30;;;;;;;14.45;78.87;98611.52;436999;1251;139089;-69
2023/08/07 20:27:55;;;;;;;2.30;1.60;;;;;;;14.27;79.99;98618.48;435711;1251;139198;-68
2023/08/07 20:38:01;;;;;;;2.60;2.00;;;;;;;14.01;81.25;98621.05;435580;1253;139421;-69
2023/08/07 20:48:08;;;;;;;3.10;1.80;;;;;;;13.82;83.06;98623.09;435820;1253;138612;-71
2023/08/07 20:58:14;;;;;;;2.50;1.60;;;;;;;13.72;84.56;98630.45;436143;1250;139116;-70
2023/08/07 21:08:22;;;;;;;2.80;1.60;;;;;;;13.65;86.21;98631.48;435976;1251;139357;-70
2023/08/07 21:18:28;;;;;;;2.50;2.20;;;;;;;13.59;87.65;98647.23;437836;1250;138664;-69
2023/08/07 21:28:36;;;;;;;1.80;1.30;;;;;;;13.63;88.90;98642.18;436291;1253;141518;-69
2023/08/07 21:38:42;;;;;;;3.70;1.70;;;;;;;13.77;88.90;98640.88;435497;1251;139415;-69
2023/08/07 21:48:48;;;;;;;1.70;1.50;;;;;;;13.97;87.07;98655.44;435834;1253;139138;-68
2023/08/07 21:58:54;;;;;;;1.70;1.10;;;;;;;14.11;84.66;98665.36;435671;1253;140367;-69
2023/08/07 22:09:02;;;;;;;1.40;1.20;;;;;;;14.20;83.78;98674.12;436502;1251;139814;-69
2023/08/07 22:19:08;;;;;;;4.50;2.10;;;;;;;14.12;84.10;98689.57;435733;1253;139767;-68
2023/08/07 22:29:15;;;;;;;2.20;1.10;;;;;;;13.92;84.86;98693.50;435539;1251;138593;-68
2023/08/07 22:39:20;;;;;;;2.60;1.10;;;;;;;13.71;86.24;98694.20;435684;1253;140388;-68
2023/08/07 22:49:26;;;;;;;2.30;1.10;;;;;;;13.54;87.32;98699.77;435761;1253;138715;-68
2023/08/07 22:59:36;;;;;;;1.40;1.00;;;;;;;13.43;88.44;98705.14;435744;1253;138800;-69
2023/08/07 23:09:44;;;;;;;2.80;1.10;;;;;;;13.37;88.79;98702.98;436072;1251;139477;-68
2023/08/07 23:19:51;;;;;;;4.70;1.70;;;;;;;13.45;88.19;98710.23;435800;1253;139761;-68
2023/08/07 23:29:56;;;;;;;5.60;2.00;;;;;;;13.49;86.77;98724.36;435750;1253;139401;-69
2023/08/07 23:40:03;;;;;;;4.60;1.20;;;;;;;13.30;85.73;98731.76;435381;1253;139846;-68
2023/08/07 23:50:11;;;;;;;2.80;1.20;;;;;;;13.10;85.64;98737.91;435778;1251;140535;-67
